Time;durP1;ratioP1;P1;durP2;ratioP2;P2;SDS_P1;SDS_P2;PMS_P1;PMS_P2;Temp;Humidity;BMP_temperature;BMP_pressure;BME280_temperature;BME280_humidity;BME280_pressure;Samples;Min_cycle;Max_cycle;Signal;HPM_P1;HPM_P2
2022/04/01 00:01:06;;;;;;;17.17;8.32;;;26.60;96.90;;;;;;4158663;28;20609;-72
2022/04/01 00:03:42;;;;;;;13.05;7.03;;;26.80;97.00;;;;;;4159349;28;20053;-69
2022/04/01 00:06:11;;;;;;;13.10;7.38;;;26.70;97.00;;;;;;4157273;28;20076;-70
2022/04/01 00:08:43;;;;;;;15.20;7.53;;;26.80;96.70;;;;;;4126913;28;20043;-68
2022/04/01 00:11:17;;;;;;;13.75;7.03;;;26.80;96.90;;;;;;4171418;28;20061;-70
2022/04/01 00:13:42;;;;;;;12.80;7.18;;;26.90;96.80;;;;;;4156652;28;20112;-71
2022/04/01 00:16:10;;;;;;;12.88;6.85;;;26.90;96.60;;;;;;4155452;28;20042;-69
2022/04/01 00:18:47;;;;;;;14.02;7.90;;;27.00;96.60;;;;;;4144497;28;20050;-69
2022/04/01 00:21:12;;;;;;;16.63;8.75;;;26.90;96.80;;;;;;4169597;28;20534;-70
2022/04/01 00:23:42;;;;;;;17.55;9.27;;;26.90;96.90;;;;;;4155437;28;20057;-70
2022/04/01 00:26:14;;;;;;;15.27;8.38;;;26.90;96.90;;;;;;4148317;28;20101;-69
2022/04/01 00:29:30;;;;;;;18.75;8.52;;;26.80;97.10;;;;;;4140341;28;20788;-68
2022/04/01 00:32:07;;;;;;;15.48;8.50;;;26.90;97.10;;;;;;4116410;28;20055;-69
2022/04/01 00:34:45;;;;;;;15.52;9.18;;;27.10;96.90;;;;;;4117687;28;20082;-69
2022/04/01 00:41:00;;;;;;;13.68;8.93;;;26.80;97.30;;;;;;4090302;28;20055;-69
2022/04/01 00:43:34;;;;;;;15.48;9.23;;;26.90;97.40;;;;;;4103793;28;20055;-69
2022/04/01 00:46:21;;;;;;;;;;;27.00;97.20;;;;;;4084855;28;20055;-70
2022/04/01 00:49:26;;;;;;;18.02;9.13;;;27.00;97.00;;;;;;4062338;28;19941;-68
2022/04/01 00:51:58;;;;;;;16.38;9.32;;;27.30;96.80;;;;;;4081042;28;20066;-69
2022/04/01 00:54:30;;;;;;;14.73;9.00;;;27.30;96.50;;;;;;4063770;28;20084;-69
2022/04/01 00:57:10;;;;;;;19.42;9.57;;;27.40;96.30;;;;;;4101020;28;20070;-68
2022/04/01 00:59:54;;;;;;;19.15;9.80;;;27.30;96.70;;;;;;4088695;29;20047;-69
2022/04/01 01:02:21;;;;;;;14.93;9.32;;;27.40;96.30;;;;;;4098271;28;20049;-68
2022/04/01 01:04:51;;;;;;;17.08;9.63;;;27.40;96.00;;;;;;4068095;29;20056;-69
2022/04/01 01:07:22;;;;;;;18.63;9.38;;;27.40;96.00;;;;;;4100846;28;20055;-68
2022/04/01 01:09:53;;;;;;;17.02;8.43;;;27.20;96.50;;;;;;4176201;28;20045;-67
2022/04/01 01:12:29;;;;;;;17.17;8.20;;;27.10;96.40;;;;;;4134428;28;20115;-66
2022/04/01 01:15:26;;;;;;;17.60;8.63;;;27.20;96.30;;;;;;4122893;28;20104;-67
2022/04/01 01:18:10;;;;;;;16.45;8.13;;;27.50;96.00;;;;;;4169747;28;20056;-67
2022/04/01 01:20:40;;;;;;;16.65;7.20;;;27.70;95.50;;;;;;4162983;28;20576;-67
2022/04/01 01:23:23;;;;;;;16.73;6.90;;;27.70;95.30;;;;;;4135649;28;20062;-68
2022/04/01 01:25:57;;;;;;;13.52;6.22;;;27.60;95.20;;;;;;4163162;28;20073;-68
2022/04/01 01:28:16;;;;;;;14.60;6.00;;;27.60;95.30;;;;;;4118445;28;20074;-68
2022/04/01 01:30:47;;;;;;;15.98;6.35;;;27.60;95.20;;;;;;4165610;28;20055;-69
2022/04/01 01:33:15;;;;;;;13.70;5.75;;;27.60;95.20;;;;;;4179098;28;20048;-69
2022/04/01 01:35:42;;;;;;;15.55;6.05;;;27.60;95.00;;;;;;4137440;28;20090;-68
2022/04/01 01:38:08;;;;;;;19.58;6.90;;;27.50;95.80;;;;;;4141904;28;20117;-68
2022/04/01 01:40:24;;;;;;;18.80;6.63;;;27.50;95.70;;;;;;4159542;28;20049;-67
2022/04/01 01:42:50;;;;;;;14.75;6.28;;;27.50;95.50;;;;;;4145134;28;20168;-65
2022/04/01 01:45:16;;;;;;;15.88;6.68;;;27.30;95.40;;;;;;4142659;28;20136;-66
2022/04/01 01:47:41;;;;;;;20.17;7.03;;;27.40;95.70;;;;;;4157269;28;20076;-66
2022/04/01 01:55:20;;;;;;;17.77;6.30;;;27.50;95.70;;;;;;4147025;28;20136;-67
2022/04/01 01:57:39;;;;;;;21.08;7.40;;;27.60;95.30;;;;;;4162187;28;20053;-68
2022/04/01 02:00:20;;;;;;;15.52;6.43;;;27.80;95.30;;;;;;4143869;28;20526;-70
2022/04/01 02:03:18;;;;;;;15.07;6.97;;;27.90;95.10;;;;;;4156344;28;20053;-67
2022/04/01 02:05:50;;;;;;;12.40;6.30;;;27.90;95.00;;;;;;4125952;28;20092;-68
2022/04/01 02:08:18;;;;;;;15.27;8.35;;;28.10;94.90;;;;;;4140047;28;20053;-69
2022/04/01 02:11:12;;;;;;;12.02;7.28;;;28.10;94.80;;;;;;4163147;28;20057;-68
2022/04/01 02:13:54;;;;;;;13.18;7.55;;;28.10;94.90;;;;;;4142030;28;20069;-67
2022/04/01 02:16:18;;;;;;;17.52;9.70;;;28.20;94.80;;;;;;4138367;28;20050;-67
2022/04/01 02:19:09;;;;;;;14.30;8.52;;;28.30;95.10;;;;;;4123666;28;20046;-67
2022/04/01 02:21:46;;;;;;;15.48;8.20;;;28.10;95.00;;;;;;4142160;28;20057;-66
2022/04/01 02:24:36;;;;;;;15.43;8.70;;;28.10;95.20;;;;;;4140347;28;20054;-68
2022/04/01 02:27:13;;;;;;;24.08;10.27;;;28.30;95.00;;;;;;4129756;28;20080;-68
2022/04/01 02:29:39;;;;;;;14.93;9.15;;;28.40;95.00;;;;;;4182856;28;20052;-68
2022/04/01 02:32:49;;;;;;;15.30;8.40;;;28.30;95.10;;;;;;4130099;28;20065;-68
2022/04/01 02:35:47;;;;;;;11.88;7.75;;;28.20;95.90;;;;;;4091591;28;20102;-68
2022/04/01 02:39:18;;;;;;;9.63;6.32;;;28.30;95.50;;;;;;4086207;29;20086;-69
2022/04/01 02:42:13;;;;;;;16.15;7.43;;;28.40;95.00;;;;;;4092032;28;20055;-68
2022/04/01 02:45:32;;;;;;;9.32;5.50;;;28.60;94.70;;;;;;4047912;29;20053;-68
2022/04/01 02:47:50;;;;;;;7.97;4.93;;;28.60;94.40;;;;;;4032964;29;20049;-67
2022/04/01 02:50:25;;;;;;;19.58;6.13;;;28.50;94.50;;;;;;4062346;29;20088;-67
2022/04/01 02:53:06;;;;;;;7.72;4.60;;;28.60;94.80;;;;;;4026722;29;20455;-67
2022/04/01 02:55:26;;;;;;;8.73;4.72;;;28.70;93.90;;;;;;4036146;29;20056;-68
2022/04/01 02:58:13;;;;;;;9.43;5.63;;;29.00;93.80;;;;;;4044206;29;20544;-68
2022/04/01 03:00:57;;;;;;;13.88;4.55;;;29.00;93.80;;;;;;4027416;29;20946;-68
2022/04/01 03:03:29;;;;;;;13.60;4.80;;;29.00;94.00;;;;;;4035569;29;20375;-70
2022/04/01 03:05:54;;;;;;;11.07;4.82;;;29.10;93.80;;;;;;4037348;29;20049;-70
2022/04/01 03:08:13;;;;;;;8.75;4.80;;;28.90;93.60;;;;;;4046302;29;20207;-67
2022/04/01 03:10:44;;;;;;;8.40;4.50;;;29.00;94.20;;;;;;4040634;29;20045;-68
2022/04/01 03:13:17;;;;;;;10.80;4.90;;;28.90;93.60;;;;;;4078180;29;20586;-68
2022/04/01 03:16:09;;;;;;;7.65;4.25;;;28.80;93.70;;;;;;4058316;29;20048;-68
2022/04/01 03:18:40;;;;;;;6.10;3.90;;;28.90;93.90;;;;;;4078685;29;20079;-68
2022/04/01 03:21:13;;;;;;;17.50;5.65;;;29.10;93.80;;;;;;4060455;29;20539;-68
2022/04/01 03:23:48;;;;;;;8.85;4.47;;;28.90;94.30;;;;;;4061582;29;20061;-71
2022/04/01 03:26:20;;;;;;;7.63;4.78;;;29.00;94.30;;;;;;4021814;29;20053;-67
2022/04/01 03:29:02;;;;;;;;;;;29.30;93.60;;;;;;4030970;29;20083;-68
2022/04/01 03:31:36;;;;;;;11.27;4.70;;;29.40;94.10;;;;;;4070811;29;19937;-69
2022/04/01 03:34:01;;;;;;;8.57;4.00;;;29.40;94.00;;;;;;4057108;29;20053;-66
2022/04/01 03:36:35;;;;;;;9.25;3.80;;;29.40;93.60;;;;;;4057695;29;20055;-65
2022/04/01 03:38:56;;;;;;;9.80;3.08;;;29.60;92.90;;;;;;4073484;29;20063;-67
2022/04/01 03:41:39;;;;;;;6.85;3.17;;;29.50;92.80;;;;;;4083641;29;20060;-66
2022/04/01 03:44:06;;;;;;;5.75;3.40;;;29.40;93.00;;;;;;4072303;29;20062;-66
2022/04/01 03:47:05;;;;;;;5.97;3.45;;;29.30;92.90;;;;;;4072423;29;20091;-66
2022/04/01 03:49:34;;;;;;;6.82;3.95;;;29.30;93.50;;;;;;4097544;28;20067;-65
2022/04/01 03:51:51;;;;;;;7.72;4.88;;;28.90;93.90;;;;;;4082045;29;20047;-65
2022/04/01 03:54:16;;;;;;;8.00;4.38;;;29.00;94.10;;;;;;4071020;28;20740;-66
2022/04/01 03:56:41;;;;;;;8.23;4.55;;;29.30;93.90;;;;;;4068817;29;20087;-65
2022/04/01 03:59:18;;;;;;;7.20;3.70;;;29.50;93.40;;;;;;4088408;29;20060;-66
2022/04/01 04:01:56;;;;;;;5.60;3.72;;;29.60;93.30;;;;;;4095551;28;20518;-66
2022/04/01 04:04:23;;;;;;;6.13;3.55;;;29.50;93.10;;;;;;4083102;29;20196;-66
2022/04/01 04:06:48;;;;;;;7.93;3.35;;;29.40;93.80;;;;;;4069510;29;20265;-66
2022/04/01 04:09:03;;;;;;;11.07;2.72;;;29.50;93.90;;;;;;4109473;28;20051;-65
2022/04/01 04:11:33;;;;;;;4.22;1.80;;;29.20;93.80;;;;;;4057621;29;20353;-67
2022/04/01 04:14:11;;;;;;;4.60;2.00;;;28.90;95.00;;;;;;4097452;28;20050;-66
2022/04/01 04:16:46;;;;;;;6.60;2.15;;;29.00;94.90;;;;;;4113957;28;20106;-67
2022/04/01 04:19:27;;;;;;;4.10;2.20;;;29.20;94.60;;;;;;4125793;28;20210;-66
2022/04/01 04:21:58;;;;;;;;;;;29.30;93.90;;;;;;4114859;28;20058;-67
2022/04/01 04:24:42;;;;;;;4.25;2.30;;;29.50;94.30;;;;;;4128448;28;20012;-67
2022/04/01 04:27:13;;;;;;;4.22;2.20;;;29.90;94.20;;;;;;4098979;28;20083;-66
2022/04/01 04:29:47;;;;;;;4.57;2.13;;;29.70;92.70;;;;;;4127059;28;20053;-67
2022/04/01 04:32:32;;;;;;;3.90;2.13;;;29.50;93.40;;;;;;4165605;28;20140;-67
2022/04/01 04:35:03;;;;;;;3.63;2.08;;;29.50;92.70;;;;;;4141428;28;20153;-67
2022/04/01 04:37:34;;;;;;;3.97;1.95;;;29.60;93.00;;;;;;4168384;28;20065;-67
2022/04/01 04:40:01;;;;;;;4.22;2.00;;;29.80;92.30;;;;;;4156185;28;20049;-66
2022/04/01 04:42:27;;;;;;;3.50;1.83;;;29.70;92.10;;;;;;4156112;28;20144;-67
2022/04/01 04:44:52;;;;;;;6.82;2.47;;;29.80;92.00;;;;;;4116126;28;20096;-66
2022/04/01 04:47:12;;;;;;;4.05;2.42;;;29.90;91.90;;;;;;4107650;28;20053;-67
2022/04/01 04:49:41;;;;;;;4.75;1.80;;;30.10;91.60;;;;;;4075915;28;20605;-67
2022/04/01 04:52:08;;;;;;;4.93;1.95;;;30.10;91.00;;;;;;4080042;28;20418;-67
2022/04/01 04:54:29;;;;;;;3.45;1.80;;;30.10;91.40;;;;;;4101325;28;20090;-67
2022/04/01 04:57:08;;;;;;;4.25;2.10;;;30.30;91.50;;;;;;4073144;29;20052;-67
2022/04/01 04:59:38;;;;;;;7.18;2.30;;;30.40;91.50;;;;;;4077016;28;20051;-67
2022/04/01 05:02:02;;;;;;;4.07;1.95;;;30.30;91.00;;;;;;4062059;28;20094;-67
2022/04/01 05:05:01;;;;;;;7.47;2.20;;;30.20;91.40;;;;;;4073677;28;20456;-67
2022/04/01 05:07:57;;;;;;;3.70;2.15;;;30.20;91.20;;;;;;4093553;28;20058;-67
2022/04/01 05:10:56;;;;;;;3.38;2.00;;;30.20;91.40;;;;;;4106925;28;20130;-67
2022/04/01 05:13:45;;;;;;;3.78;2.08;;;30.30;91.50;;;;;;4074490;28;20063;-67
2022/04/01 05:16:09;;;;;;;4.53;1.98;;;30.40;91.50;;;;;;4090447;28;20786;-66
2022/04/01 05:18:38;;;;;;;3.53;1.98;;;30.30;91.30;;;;;;4135349;28;20061;-67
2022/04/01 05:21:04;;;;;;;4.35;2.15;;;30.20;91.30;;;;;;4154688;28;20554;-67
2022/04/01 05:23:39;;;;;;;7.25;2.25;;;30.20;91.30;;;;;;4178015;28;20055;-67
2022/04/01 05:26:15;;;;;;;3.42;2.30;;;30.10;91.50;;;;;;4145164;28;20124;-67
2022/04/01 05:28:45;;;;;;;3.88;2.40;;;30.00;91.50;;;;;;4144324;28;20053;-67
2022/04/01 05:31:20;;;;;;;4.72;2.60;;;29.90;91.50;;;;;;4157391;28;20550;-68
2022/04/01 05:33:59;;;;;;;5.13;2.40;;;29.80;91.70;;;;;;4163013;28;20084;-68
2022/04/01 05:36:26;;;;;;;6.45;2.80;;;29.80;91.80;;;;;;4141440;28;20080;-68
2022/04/01 05:38:54;;;;;;;6.45;3.00;;;29.80;92.20;;;;;;4129527;28;20089;-67
2022/04/01 05:41:19;;;;;;;6.47;2.70;;;29.80;92.10;;;;;;4143970;28;20100;-67
2022/04/01 05:43:47;;;;;;;5.03;2.70;;;29.80;92.50;;;;;;4111297;28;20064;-67
2022/04/01 05:46:23;;;;;;;3.75;2.33;;;29.70;92.40;;;;;;4119487;28;20118;-67
2022/04/01 05:48:42;;;;;;;6.32;3.05;;;29.70;92.90;;;;;;4138450;28;20046;-67
2022/04/01 05:51:05;;;;;;;6.32;2.75;;;29.70;93.70;;;;;;4124976;28;20259;-67
2022/04/01 05:53:37;;;;;;;8.88;3.10;;;29.50;94.00;;;;;;4114171;28;20058;-67
2022/04/01 05:56:03;;;;;;;5.88;2.65;;;29.40;94.20;;;;;;4113743;28;20066;-67
2022/04/01 05:58:26;;;;;;;7.88;2.75;;;29.20;94.20;;;;;;4154962;28;20784;-67
2022/04/01 06:01:12;;;;;;;6.03;3.15;;;29.20;94.40;;;;;;4154965;28;20065;-67
2022/04/01 06:03:38;;;;;;;5.38;2.95;;;29.20;94.90;;;;;;4142603;28;20128;-67
2022/04/01 06:06:18;;;;;;;6.65;2.92;;;29.20;95.00;;;;;;4133230;28;20445;-67
2022/04/01 06:08:50;;;;;;;6.30;3.10;;;29.20;95.10;;;;;;4086549;28;20062;-67
2022/04/01 06:11:32;;;;;;;5.70;3.30;;;29.30;95.40;;;;;;4140716;28;20045;-67
2022/04/01 06:14:24;;;;;;;7.15;3.13;;;29.20;95.40;;;;;;4136280;28;20594;-68
2022/04/01 06:17:28;;;;;;;5.72;2.80;;;29.30;95.00;;;;;;4154053;28;20111;-68
2022/04/01 06:19:45;;;;;;;5.55;2.25;;;29.40;94.70;;;;;;4153348;28;20563;-68
2022/04/01 06:22:09;;;;;;;6.47;2.50;;;29.60;94.60;;;;;;4154934;28;20048;-67
2022/04/01 06:24:50;;;;;;;4.68;2.25;;;29.70;94.50;;;;;;4155318;28;20060;-66
2022/04/01 06:27:14;;;;;;;6.28;2.10;;;29.80;94.20;;;;;;4140993;28;20060;-67
2022/04/01 06:29:42;;;;;;;6.70;2.80;;;29.90;94.00;;;;;;4149973;28;20034;-67
2022/04/01 06:32:12;;;;;;;4.85;2.33;;;29.90;94.00;;;;;;4149106;28;20137;-67
2022/04/01 06:34:55;;;;;;;7.07;2.22;;;29.90;94.10;;;;;;4152201;28;20057;-67
2022/04/01 06:37:46;;;;;;;4.93;2.80;;;29.70;94.30;;;;;;4173096;28;20110;-68
2022/04/01 06:40:10;;;;;;;6.25;3.40;;;29.70;94.40;;;;;;4140362;28;20065;-67
2022/04/01 06:42:40;;;;;;;8.20;3.70;;;29.60;94.80;;;;;;4143967;28;20107;-67
2022/04/01 06:45:11;;;;;;;11.07;3.92;;;29.50;95.20;;;;;;4176309;28;20048;-67
2022/04/01 06:47:55;;;;;;;7.07;3.35;;;29.40;95.60;;;;;;4156832;28;20070;-67
2022/04/01 06:50:21;;;;;;;4.13;3.00;;;29.50;95.60;;;;;;4143362;28;20073;-68
2022/04/01 06:52:47;;;;;;;6.15;3.15;;;29.50;95.70;;;;;;4177533;28;20059;-67
2022/04/01 06:55:30;;;;;;;4.93;2.90;;;29.60;95.60;;;;;;4156978;28;20070;-67
2022/04/01 06:58:11;;;;;;;7.07;2.97;;;29.80;95.40;;;;;;4162038;28;20064;-67
2022/04/01 07:00:44;;;;;;;5.15;2.85;;;29.90;95.40;;;;;;4158563;28;20538;-67
2022/04/01 07:03:11;;;;;;;4.55;2.40;;;30.10;94.90;;;;;;4157755;28;20115;-67
2022/04/01 07:05:35;;;;;;;4.90;2.70;;;30.20;94.40;;;;;;4158863;28;20061;-67
2022/04/01 07:07:51;;;;;;;8.73;2.10;;;30.20;94.30;;;;;;4158037;28;20072;-67
2022/04/01 07:10:07;;;;;;;4.40;2.60;;;30.20;94.20;;;;;;4139737;28;20054;-67
2022/04/01 07:12:32;;;;;;;3.83;2.25;;;30.20;94.00;;;;;;4157175;28;20084;-67
2022/04/01 07:14:59;;;;;;;5.10;2.70;;;30.20;94.00;;;;;;4139806;28;20054;-66
2022/04/01 07:17:30;;;;;;;3.55;2.00;;;30.10;94.10;;;;;;4141871;28;20061;-67
2022/04/01 07:19:57;;;;;;;3.03;1.30;;;29.90;92.60;;;;;;4144030;28;20913;-68
2022/04/01 07:22:13;;;;;;;4.80;1.30;;;29.70;92.20;;;;;;4157824;28;20045;-67
2022/04/01 07:24:30;;;;;;;2.42;1.10;;;29.70;91.70;;;;;;4153488;28;20046;-68
2022/04/01 07:26:57;;;;;;;4.95;1.10;;;29.80;91.50;;;;;;4144994;28;21025;-68
2022/04/01 07:29:22;;;;;;;5.35;1.42;;;29.80;91.60;;;;;;4144643;28;20064;-68
2022/04/01 07:34:35;;;;;;;3.72;1.00;;;29.70;91.10;;;;;;4144680;28;20057;-68
2022/04/01 07:37:01;;;;;;;3.72;1.08;;;29.80;91.10;;;;;;4142813;28;20043;-68
2022/04/01 07:39:26;;;;;;;5.05;1.02;;;29.70;91.10;;;;;;4142181;28;20058;-68
2022/04/01 07:41:53;;;;;;;3.47;0.90;;;29.60;91.00;;;;;;4142333;28;20073;-67
2022/04/01 07:44:10;;;;;;;3.22;0.93;;;29.70;90.70;;;;;;4155193;28;20065;-67
2022/04/01 07:46:34;;;;;;;1.30;0.70;;;29.60;90.00;;;;;;4153580;28;20491;-67
2022/04/01 07:48:59;;;;;;;1.77;0.90;;;29.60;89.90;;;;;;4159372;28;20057;-67
2022/04/01 07:51:17;;;;;;;2.65;0.68;;;29.60;90.10;;;;;;4157226;28;20052;-67
2022/04/01 07:53:37;;;;;;;5.70;1.20;;;29.60;89.90;;;;;;4148429;28;20049;-68
2022/04/01 07:55:55;;;;;;;1.20;0.50;;;29.60;90.00;;;;;;4157563;28;20069;-67
2022/04/01 07:58:15;;;;;;;2.83;0.73;;;29.60;90.00;;;;;;4158448;28;20095;-67
2022/04/01 08:00:48;;;;;;;;;;;29.60;90.50;;;;;;4154699;28;20068;-67
2022/04/01 08:03:14;;;;;;;2.35;0.70;;;29.60;90.00;;;;;;4156261;28;20047;-66
2022/04/01 08:05:40;;;;;;;2.30;0.70;;;29.60;89.80;;;;;;4156369;28;20063;-67
2022/04/01 08:08:05;;;;;;;3.05;0.60;;;29.60;89.10;;;;;;4155482;28;20089;-67
2022/04/01 08:10:31;;;;;;;2.65;0.43;;;29.60;88.20;;;;;;4153390;28;20050;-67
2022/04/01 08:12:56;;;;;;;1.25;0.50;;;29.60;88.20;;;;;;4154177;28;20068;-67
2022/04/01 08:15:21;;;;;;;6.05;0.60;;;29.70;88.30;;;;;;4155316;28;20498;-67
2022/04/01 08:17:47;;;;;;;4.03;0.80;;;29.70;88.40;;;;;;4155502;28;20050;-67
2022/04/01 08:20:14;;;;;;;2.78;0.70;;;29.80;87.90;;;;;;4181763;28;20048;-67
2022/04/01 08:22:26;;;;;;;2.70;0.90;;;29.80;87.50;;;;;;4156105;28;20891;-67
2022/04/01 08:24:52;;;;;;;1.00;0.60;;;30.00;87.40;;;;;;4154792;28;20103;-66
2022/04/01 08:27:19;;;;;;;3.00;0.88;;;30.10;87.70;;;;;;4156481;28;20049;-67
2022/04/01 08:29:44;;;;;;;1.27;0.73;;;30.20;86.40;;;;;;4154397;28;20049;-66
2022/04/01 08:32:11;;;;;;;3.05;0.80;;;30.20;86.90;;;;;;4156358;28;20058;-67
2022/04/01 08:34:37;;;;;;;2.15;0.90;;;30.30;86.80;;;;;;4156312;28;20084;-67
2022/04/01 08:37:03;;;;;;;4.07;2.30;;;30.30;87.20;;;;;;4161566;28;20051;-67
2022/04/01 08:39:29;;;;;;;2.20;0.88;;;30.40;87.50;;;;;;4155176;28;20099;-67
2022/04/01 08:41:56;;;;;;;2.83;1.65;;;30.20;86.90;;;;;;4178385;28;20185;-67
2022/04/01 08:44:21;;;;;;;14.55;6.30;;;30.20;87.00;;;;;;4155512;28;20045;-68
2022/04/01 08:46:47;;;;;;;8.75;3.95;;;30.20;87.30;;;;;;4154225;28;20140;-67
2022/04/01 08:49:13;;;;;;;4.60;1.60;;;30.20;87.30;;;;;;4153327;28;20109;-68
2022/04/01 08:51:37;;;;;;;10.38;4.63;;;30.00;87.60;;;;;;4154671;28;20049;-68
2022/04/01 08:53:59;;;;;;;7.10;3.25;;;30.00;88.40;;;;;;4157026;28;20152;-68
2022/04/01 08:56:25;;;;;;;3.30;2.03;;;30.00;88.50;;;;;;4126747;28;20166;-68
2022/04/01 08:58:50;;;;;;;6.32;2.78;;;30.10;88.50;;;;;;4155679;28;20096;-68
2022/04/01 09:01:14;;;;;;;3.85;2.70;;;30.20;88.60;;;;;;4148417;28;20048;-68
2022/04/01 09:03:40;;;;;;;30.65;9.85;;;30.30;88.80;;;;;;4151392;28;20097;-67
2022/04/01 09:05:55;;;;;;;11.65;3.67;;;30.20;88.70;;;;;;4149860;28;20100;-69
2022/04/01 09:08:35;;;;;;;6.20;3.83;;;30.10;88.80;;;;;;4175318;28;20052;-69
2022/04/01 09:11:05;;;;;;;14.00;6.88;;;30.20;88.80;;;;;;4153650;28;20057;-69
2022/04/01 09:13:45;;;;;;;13.85;7.13;;;30.20;88.90;;;;;;4153327;28;20167;-70
2022/04/01 09:16:32;;;;;;;15.35;6.32;;;30.10;88.90;;;;;;4177558;28;20109;-70
2022/04/01 09:19:02;;;;;;;9.20;4.70;;;30.10;89.30;;;;;;4160720;28;20056;-70
2022/04/01 09:21:10;;;;;;;10.85;4.20;;;30.10;89.90;;;;;;4165618;28;21351;-70
2022/04/01 09:23:23;;;;;;;6.88;4.35;;;30.10;89.30;;;;;;4172804;28;20028;-70
2022/04/01 09:25:48;;;;;;;6.53;3.97;;;30.00;89.40;;;;;;4185423;28;20737;-70
2022/04/01 09:27:55;;;;;;;11.45;5.05;;;30.00;89.60;;;;;;4173491;28;20045;-71
2022/04/01 09:30:01;;;;;;;7.35;4.07;;;30.00;89.50;;;;;;4170308;28;20057;-70
2022/04/01 09:32:08;;;;;;;17.70;6.28;;;29.70;89.00;;;;;;4156315;28;20076;-70
2022/04/01 09:34:16;;;;;;;12.65;5.95;;;29.80;89.40;;;;;;4173478;28;20390;-71
2022/04/01 09:36:26;;;;;;;21.45;12.30;;;29.80;89.50;;;;;;4151207;28;20061;-71
2022/04/01 09:38:52;;;;;;;16.70;6.80;;;29.80;89.70;;;;;;4156410;28;20053;-71
2022/04/01 09:41:03;;;;;;;4.85;2.78;;;29.60;90.00;;;;;;4172469;28;20881;-71
2022/04/01 09:43:10;;;;;;;6.00;3.17;;;29.70;90.30;;;;;;4173167;28;20136;-71
2022/04/01 09:45:19;;;;;;;4.00;2.30;;;29.70;90.30;;;;;;4166719;28;20503;-71
2022/04/01 09:47:25;;;;;;;4.45;1.65;;;29.70;90.40;;;;;;4170269;28;20056;-72
2022/04/01 09:49:39;;;;;;;2.70;1.50;;;29.80;90.70;;;;;;4155548;28;20411;-71
2022/04/01 09:51:46;;;;;;;2.45;1.42;;;29.80;90.70;;;;;;4137365;28;20050;-71
2022/04/01 09:53:54;;;;;;;2.00;1.30;;;29.70;90.90;;;;;;4172671;28;20115;-71
2022/04/01 09:56:39;;;;;;;5.65;1.58;;;29.80;91.00;;;;;;4156677;28;20048;-71
2022/04/01 09:58:46;;;;;;;2.45;1.50;;;29.70;91.10;;;;;;4156252;28;20092;-71
2022/04/01 10:00:56;;;;;;;2.35;1.20;;;29.70;91.10;;;;;;4140987;28;20045;-72
2022/04/01 10:03:07;;;;;;;3.10;1.50;;;29.70;91.30;;;;;;4171073;28;20131;-71
2022/04/01 10:05:14;;;;;;;3.97;1.40;;;29.70;91.30;;;;;;4156628;28;20115;-72
2022/04/01 10:07:22;;;;;;;2.70;1.30;;;29.70;91.50;;;;;;4172049;28;20119;-72
2022/04/01 10:09:33;;;;;;;5.05;1.65;;;29.60;91.70;;;;;;4173566;28;20055;-71
2022/04/01 10:12:08;;;;;;;3.28;1.80;;;29.60;91.90;;;;;;4159938;28;20052;-71
2022/04/01 10:14:21;;;;;;;4.82;1.70;;;29.50;92.30;;;;;;4138666;28;20746;-72
2022/04/01 10:16:26;;;;;;;3.03;1.97;;;29.50;92.30;;;;;;4185163;28;20040;-72
2022/04/01 10:18:31;;;;;;;6.38;2.55;;;29.50;92.50;;;;;;4157347;28;20037;-70
2022/04/01 10:20:38;;;;;;;11.82;4.10;;;29.40;92.90;;;;;;4183563;28;20049;-72
2022/04/01 10:22:43;;;;;;;6.35;3.33;;;29.40;93.00;;;;;;4175455;28;20500;-71
2022/04/01 10:25:05;;;;;;;10.52;3.38;;;29.40;93.30;;;;;;4177300;28;20540;-70
2022/04/01 10:27:37;;;;;;;5.18;2.85;;;29.40;93.20;;;;;;4161437;28;20046;-70
2022/04/01 10:29:44;;;;;;;7.80;3.20;;;29.30;93.00;;;;;;4143322;28;20097;-71
2022/04/01 10:31:55;;;;;;;6.43;3.40;;;29.30;93.50;;;;;;4164381;28;20388;-70
2022/04/01 10:34:18;;;;;;;8.25;3.45;;;29.20;93.60;;;;;;4156342;28;20095;-71
2022/04/01 10:36:22;;;;;;;7.32;2.95;;;29.20;93.50;;;;;;4173851;28;20072;-70
2022/04/01 10:38:33;;;;;;;4.38;2.88;;;29.20;93.40;;;;;;4176350;28;20071;-71
2022/04/01 10:40:41;;;;;;;6.65;3.03;;;29.20;93.40;;;;;;4159696;28;20049;-71
2022/04/01 10:42:47;;;;;;;6.10;3.47;;;29.10;93.40;;;;;;4175788;28;20156;-70
2022/04/01 10:44:56;;;;;;;8.13;3.28;;;29.20;93.50;;;;;;4141416;28;20539;-72
2022/04/01 10:47:05;;;;;;;6.38;3.70;;;29.10;93.80;;;;;;4174841;28;20041;-70
2022/04/01 10:53:48;;;;;;;11.23;6.70;;;29.10;93.90;;;;;;4148966;28;20496;-69
2022/04/01 10:56:25;;;;;;;11.20;6.45;;;29.00;94.10;;;;;;4154582;28;20041;-69
2022/04/01 10:58:36;;;;;;;12.23;6.32;;;29.00;94.20;;;;;;4145813;28;20045;-71
2022/04/01 11:00:52;;;;;;;12.32;6.63;;;29.00;94.40;;;;;;4148391;28;20097;-70
2022/04/01 11:02:57;;;;;;;13.98;6.63;;;28.90;94.90;;;;;;4145444;28;20050;-70
2022/04/01 11:05:24;;;;;;;10.68;5.55;;;28.90;95.00;;;;;;4122795;28;20554;-71
2022/04/01 11:07:30;;;;;;;8.43;4.95;;;28.80;95.20;;;;;;4127360;28;20046;-70
2022/04/01 11:09:47;;;;;;;10.75;4.63;;;28.90;95.30;;;;;;4123058;28;20184;-67
2022/04/01 11:12:12;;;;;;;9.48;3.78;;;28.90;95.40;;;;;;4129689;28;20062;-70
2022/04/01 11:14:19;;;;;;;11.32;4.30;;;28.80;95.40;;;;;;4113129;28;20061;-70
2022/04/01 11:16:25;;;;;;;8.80;4.47;;;28.90;95.30;;;;;;4130450;28;20705;-70
2022/04/01 11:18:29;;;;;;;13.27;5.07;;;28.90;95.30;;;;;;4114777;28;20517;-69
2022/04/01 11:20:40;;;;;;;14.75;5.15;;;28.80;95.20;;;;;;4081059;28;20069;-69
2022/04/01 11:22:47;;;;;;;11.18;5.32;;;28.80;95.30;;;;;;4105593;28;20047;-70
2022/04/01 11:24:54;;;;;;;13.90;4.80;;;28.70;95.40;;;;;;4106636;28;20397;-69
2022/04/01 11:27:22;;;;;;;9.60;4.95;;;28.80;95.20;;;;;;4113717;28;20055;-70
2022/04/01 11:29:27;;;;;;;8.38;4.85;;;28.80;95.00;;;;;;4114204;28;20426;-69
2022/04/01 11:31:32;;;;;;;6.30;3.72;;;28.60;95.10;;;;;;4125339;28;20058;-70
2022/04/01 11:33:52;;;;;;;8.45;3.63;;;28.60;95.10;;;;;;4067446;29;20139;-70
2022/04/01 11:35:58;;;;;;;9.35;3.53;;;28.50;95.00;;;;;;4119756;28;20149;-71
2022/04/01 11:38:04;;;;;;;7.32;4.00;;;28.40;95.50;;;;;;4144371;28;20090;-73
2022/04/01 11:40:13;;;;;;;6.68;3.40;;;28.40;95.40;;;;;;4133014;28;20078;-71
2022/04/01 11:42:18;;;;;;;6.53;4.57;;;28.50;95.40;;;;;;4145760;28;20054;-70
2022/04/01 11:44:23;;;;;;;7.07;4.53;;;28.50;95.30;;;;;;4146453;28;20060;-69
2022/04/01 11:46:29;;;;;;;6.68;4.32;;;28.60;95.50;;;;;;4115148;28;20137;-70
2022/04/01 11:48:39;;;;;;;5.75;4.07;;;28.60;95.50;;;;;;4131747;28;20092;-69
2022/04/01 11:50:48;;;;;;;7.55;3.70;;;28.60;95.20;;;;;;4141610;28;20132;-70
2022/04/01 11:52:55;;;;;;;8.68;3.88;;;28.60;95.40;;;;;;4136885;28;20042;-70
2022/04/01 11:54:59;;;;;;;6.90;3.85;;;28.40;95.60;;;;;;4137087;28;20085;-70
2022/04/01 11:57:10;;;;;;;8.38;5.18;;;28.50;95.60;;;;;;4126955;28;20046;-70
2022/04/01 11:59:16;;;;;;;12.15;8.35;;;28.50;95.80;;;;;;4128898;28;20069;-71
2022/04/01 12:01:25;;;;;;;9.90;8.05;;;28.50;95.80;;;;;;4137274;28;20053;-69
2022/04/01 12:03:30;;;;;;;7.75;6.35;;;28.40;95.90;;;;;;4134813;28;20063;-69
2022/04/01 12:05:35;;;;;;;7.88;4.90;;;28.40;95.90;;;;;;4135185;28;20042;-69
2022/04/01 12:09:59;;;;;;;6.35;4.30;;;28.40;96.10;;;;;;4134134;28;20425;-70
2022/04/01 12:12:06;;;;;;;7.47;4.30;;;28.20;96.10;;;;;;4108150;28;20047;-70
2022/04/01 12:14:13;;;;;;;7.18;4.30;;;28.20;96.10;;;;;;4155216;28;20091;-70
2022/04/01 12:16:18;;;;;;;5.65;3.85;;;28.20;96.10;;;;;;4161960;28;20055;-70
2022/04/01 12:18:26;;;;;;;7.30;4.28;;;28.10;96.00;;;;;;4145305;28;20038;-70
2022/04/01 12:20:31;;;;;;;9.38;4.53;;;28.20;95.90;;;;;;4161218;28;20076;-70
2022/04/01 12:22:42;;;;;;;9.55;4.68;;;28.00;96.10;;;;;;4160556;28;20472;-70
2022/04/01 12:24:47;;;;;;;13.88;4.53;;;27.90;96.30;;;;;;4160743;28;20042;-71
2022/04/01 12:26:52;;;;;;;7.95;4.10;;;28.00;96.20;;;;;;4096121;29;20057;-71
2022/04/01 12:28:58;;;;;;;8.05;4.00;;;28.10;96.20;;;;;;4081098;29;20098;-72
2022/04/01 12:31:07;;;;;;;6.25;3.60;;;28.10;96.00;;;;;;4096119;28;20047;-71
2022/04/01 12:33:15;;;;;;;6.60;3.17;;;28.10;95.90;;;;;;4096005;28;20039;-72
2022/04/01 12:35:26;;;;;;;6.30;3.05;;;27.90;95.70;;;;;;4093856;29;20437;-71
2022/04/01 12:37:36;;;;;;;6.78;3.50;;;28.00;95.80;;;;;;4095614;28;20043;-72
2022/04/01 12:39:44;;;;;;;8.90;3.70;;;28.00;95.70;;;;;;4096425;28;20438;-71
2022/04/01 12:41:58;;;;;;;6.68;3.55;;;28.10;94.90;;;;;;4096421;29;20047;-69
2022/04/01 12:44:13;;;;;;;5.63;3.55;;;28.00;94.70;;;;;;4096442;29;20058;-68
2022/04/01 12:46:23;;;;;;;4.60;2.53;;;28.00;94.40;;;;;;4096641;29;20481;-68
2022/04/01 12:48:30;;;;;;;5.10;2.60;;;27.90;93.90;;;;;;4096581;29;20059;-68
2022/04/01 12:50:39;;;;;;;5.70;2.95;;;28.10;93.30;;;;;;4096989;28;20842;-69
2022/04/01 12:52:44;;;;;;;4.20;2.60;;;28.10;93.00;;;;;;4096860;29;20101;-67
2022/04/01 12:54:53;;;;;;;3.42;2.17;;;28.20;92.90;;;;;;4080669;29;20422;-68